createdAt,value
2019-03-28T00:03:00.228Z,11.20
2019-03-28T00:07:05.930Z,11.10
2019-03-28T00:11:11.616Z,11.00
2019-03-28T00:15:17.324Z,10.90
2019-03-28T00:19:23.017Z,10.80
2019-03-28T00:23:42.635Z,10.70
2019-03-28T00:27:48.336Z,10.60
2019-03-28T00:31:54.128Z,10.70
2019-03-28T00:36:00.293Z,10.60
2019-03-28T00:40:08.718Z,10.60
2019-03-28T00:44:14.414Z,10.80
2019-03-28T00:48:20.125Z,10.90
2019-03-28T00:52:25.811Z,11.00
2019-03-28T00:56:44.746Z,10.60
2019-03-28T01:00:38.964Z,10.20
2019-03-28T01:04:44.653Z,10.00
2019-03-28T01:08:50.356Z,10.10
2019-03-28T01:12:56.054Z,10.10
2019-03-28T01:17:01.776Z,10.20
2019-03-28T01:21:07.499Z,10.20
2019-03-28T01:25:13.265Z,10.40
2019-03-28T01:29:18.950Z,10.40
2019-03-28T01:33:24.641Z,10.50
2019-03-28T01:37:30.339Z,10.50
2019-03-28T01:41:36.114Z,10.20
2019-03-28T01:45:41.884Z,10.20
2019-03-28T01:49:47.554Z,10.00
2019-03-28T01:53:53.240Z,10.00
2019-03-28T01:57:58.936Z,10.00
2019-03-28T02:02:04.625Z,10.10
2019-03-28T02:06:10.337Z,10.20
2019-03-28T02:10:17.859Z,10.20
2019-03-28T02:14:23.545Z,10.00
2019-03-28T02:18:29.293Z,9.90
2019-03-28T02:22:35.093Z,10.00
2019-03-28T02:26:40.841Z,10.10
2019-03-28T02:30:46.538Z,10.10
2019-03-28T02:34:52.305Z,10.10
2019-03-28T02:38:58.587Z,10.10
2019-03-28T02:43:04.362Z,9.90
2019-03-28T02:47:10.074Z,9.70
2019-03-28T02:51:15.728Z,9.40
2019-03-28T02:55:21.408Z,9.50
2019-03-28T02:59:27.098Z,9.70
2019-03-28T03:03:32.782Z,9.80
2019-03-28T03:07:38.486Z,9.90
2019-03-28T03:11:44.180Z,9.90
2019-03-28T03:15:49.869Z,9.80
2019-03-28T03:19:55.571Z,9.80
2019-03-28T03:24:01.255Z,9.60
2019-03-28T03:28:06.929Z,9.60
2019-03-28T03:32:12.622Z,9.60
2019-03-28T03:36:18.313Z,9.60
2019-03-28T03:40:24.130Z,9.60
2019-03-28T03:44:29.916Z,9.60
2019-03-28T03:48:35.656Z,9.70
2019-03-28T03:52:41.651Z,9.90
2019-03-28T03:56:47.583Z,9.80
2019-03-28T04:00:53.306Z,9.40
2019-03-28T04:04:58.988Z,9.50
2019-03-28T04:09:06.131Z,9.80
2019-03-28T04:13:11.836Z,9.70
2019-03-28T04:17:17.605Z,9.60
2019-03-28T04:21:23.322Z,9.50
2019-03-28T04:25:29.076Z,9.50
2019-03-28T04:29:34.741Z,9.60
2019-03-28T04:33:40.537Z,9.50
2019-03-28T04:37:47.456Z,9.40
2019-03-28T04:41:53.124Z,9.70
2019-03-28T04:45:58.879Z,9.80
2019-03-28T04:50:06.594Z,9.60
2019-03-28T04:54:12.301Z,9.50
2019-03-28T04:58:17.969Z,9.30
2019-03-28T05:02:23.657Z,9.10
2019-03-28T05:06:29.344Z,9.20
2019-03-28T05:10:36.009Z,9.50
2019-03-28T05:14:41.693Z,9.50
2019-03-28T05:18:47.376Z,9.60
2019-03-28T05:22:54.107Z,9.60
2019-03-28T05:26:59.805Z,9.60
2019-03-28T05:31:05.468Z,9.40
2019-03-28T05:35:11.501Z,9.20
2019-03-28T05:39:17.192Z,9.20
2019-03-28T05:43:22.892Z,9.20
2019-03-28T05:47:29.440Z,9.30
2019-03-28T05:51:35.204Z,9.50
2019-03-28T05:55:40.895Z,9.40
2019-03-28T05:59:46.581Z,9.50
2019-03-28T06:03:52.268Z,9.50
2019-03-28T06:07:57.934Z,9.40
2019-03-28T06:12:03.720Z,9.70
2019-03-28T06:16:09.405Z,9.90
2019-03-28T06:20:15.434Z,10.10
2019-03-28T06:24:21.122Z,10.10
2019-03-28T06:28:26.876Z,10.30
2019-03-28T06:32:42.233Z,10.50
2019-03-28T06:36:40.504Z,10.40
2019-03-28T06:40:46.462Z,10.30
2019-03-28T06:44:52.173Z,10.60
2019-03-28T06:48:57.837Z,11.00
2019-03-28T06:53:03.530Z,11.80
2019-03-28T06:57:09.275Z,12.40
2019-03-28T07:01:15.215Z,12.60
2019-03-28T07:05:22.266Z,12.90
2019-03-28T07:09:27.964Z,13.10
2019-03-28T07:13:33.797Z,13.40
2019-03-28T07:17:39.488Z,13.90
2019-03-28T07:21:45.229Z,14.10
2019-03-28T07:25:50.902Z,14.50
2019-03-28T07:29:56.599Z,14.90
2019-03-28T07:34:02.294Z,15.10
2019-03-28T07:38:08.068Z,15.60
2019-03-28T07:42:13.763Z,15.80
2019-03-28T07:46:19.449Z,16.30
2019-03-28T07:50:26.127Z,16.70
2019-03-28T07:54:31.822Z,17.00
2019-03-28T07:58:38.617Z,17.40
2019-03-28T08:02:44.290Z,17.80
2019-03-28T08:06:51.205Z,18.20
2019-03-28T08:10:57.550Z,18.60
2019-03-28T08:15:04.763Z,18.90
2019-03-28T08:19:11.460Z,19.10
2019-03-28T08:23:17.332Z,19.20
2019-03-28T08:27:23.087Z,19.90
2019-03-28T08:31:28.903Z,20.60
2019-03-28T08:35:37.316Z,21.10
2019-03-28T08:39:44.674Z,21.30
2019-03-28T08:43:50.497Z,21.60
2019-03-28T08:47:56.233Z,22.10
2019-03-28T08:52:01.928Z,22.40
2019-03-28T08:56:07.700Z,23.00
2019-03-28T09:00:16.733Z,23.50
2019-03-28T09:04:22.978Z,24.10
2019-03-28T09:08:28.652Z,25.00
2019-03-28T09:12:35.367Z,25.50
2019-03-28T09:16:41.467Z,25.90
2019-03-28T09:20:47.333Z,26.30
2019-03-28T09:25:17.595Z,26.70
2019-03-28T09:29:23.345Z,27.10
2019-03-28T09:33:30.080Z,27.70
2019-03-28T09:37:35.797Z,28.10
2019-03-28T09:42:18.100Z,28.40
2019-03-28T09:46:23.775Z,28.80
2019-03-28T09:50:29.492Z,29.20
2019-03-28T09:54:36.316Z,29.60
2019-03-28T09:58:42.006Z,29.80
2019-03-28T10:02:49.286Z,29.20
2019-03-28T10:06:55.023Z,29.50
2019-03-28T10:11:00.701Z,30.30
2019-03-28T10:15:09.453Z,30.70
2019-03-28T10:19:17.826Z,30.20
2019-03-28T10:23:23.514Z,30.30
2019-03-28T10:27:29.218Z,31.00
2019-03-28T10:31:34.992Z,32.00
2019-03-28T10:35:40.806Z,32.90
2019-03-28T10:39:46.533Z,33.80
2019-03-28T10:43:52.243Z,34.10
2019-03-28T10:47:58.082Z,34.30
2019-03-28T10:52:04.155Z,35.00
2019-03-28T10:56:21.048Z,35.20
2019-03-28T11:05:35.420Z,35.50
2019-03-28T11:09:41.229Z,35.30
2019-03-28T11:13:46.941Z,35.50
2019-03-28T11:17:52.662Z,32.00
2019-03-28T11:21:58.354Z,31.80
2019-03-28T11:26:04.115Z,34.00
2019-03-28T11:30:10.721Z,35.30
2019-03-28T11:34:16.528Z,36.20
2019-03-28T11:38:22.220Z,36.50
2019-03-28T11:42:27.995Z,36.80
2019-03-28T11:46:33.712Z,37.20
2019-03-28T11:50:39.432Z,37.20
2019-03-28T11:54:45.122Z,37.40
2019-03-28T11:58:50.809Z,37.10
2019-03-28T12:02:56.506Z,36.10
2019-03-28T12:07:02.205Z,35.60
2019-03-28T12:11:07.919Z,33.60
2019-03-28T12:15:14.234Z,30.90
2019-03-28T12:19:19.937Z,30.00
2019-03-28T12:23:25.690Z,28.90
2019-03-28T12:27:31.378Z,27.00
2019-03-28T12:31:37.077Z,25.70
2019-03-28T12:35:42.851Z,24.60
2019-03-28T12:39:48.531Z,23.80
2019-03-28T12:43:54.231Z,23.40
2019-03-28T12:47:59.916Z,23.10
2019-03-28T12:52:07.327Z,22.70
2019-03-28T12:56:13.034Z,22.60
2019-03-28T13:00:23.308Z,22.20
2019-03-28T13:04:29.003Z,21.90
2019-03-28T13:08:34.725Z,21.90
2019-03-28T13:12:40.553Z,21.80
2019-03-28T13:16:46.266Z,21.70
2019-03-28T13:20:52.038Z,21.80
2019-03-28T13:24:57.721Z,21.80
2019-03-28T13:29:03.472Z,21.70
2019-03-28T13:33:10.688Z,21.50
2019-03-28T13:37:16.377Z,21.90
2019-03-28T13:41:22.074Z,22.80
2019-03-28T13:45:27.777Z,23.20
2019-03-28T13:49:33.463Z,22.90
2019-03-28T13:53:40.081Z,22.90
2019-03-28T13:57:45.843Z,23.30
2019-03-28T14:01:51.605Z,24.50
2019-03-28T14:05:57.308Z,24.10
2019-03-28T14:10:03.068Z,24.20
2019-03-28T14:14:08.754Z,23.70
2019-03-28T14:18:14.487Z,23.10
2019-03-28T14:22:20.199Z,22.60
2019-03-28T14:26:25.963Z,22.10
2019-03-28T14:30:31.670Z,22.10
2019-03-28T14:34:39.838Z,22.00
2019-03-28T14:38:44.774Z,21.60
2019-03-28T14:42:51.442Z,21.60
2019-03-28T14:46:57.163Z,21.70
2019-03-28T14:51:03.074Z,21.60
2019-03-28T14:55:09.010Z,22.10
2019-03-28T14:59:15.487Z,21.60
2019-03-28T15:03:26.665Z,20.80
2019-03-28T15:07:28.803Z,20.50
2019-03-28T15:11:34.511Z,20.30
2019-03-28T15:15:40.199Z,20.40
2019-03-28T15:19:45.941Z,20.30
2019-03-28T15:23:51.683Z,19.90
2019-03-28T15:27:57.517Z,19.70
2019-03-28T15:32:03.306Z,19.40
2019-03-28T15:36:09.026Z,19.20
2019-03-28T15:40:16.483Z,19.20
2019-03-28T15:44:22.175Z,19.20
2019-03-28T15:48:27.875Z,19.30
2019-03-28T15:52:33.571Z,19.30
2019-03-28T15:56:39.524Z,19.20
2019-03-28T16:00:45.301Z,19.20
2019-03-28T16:04:51.054Z,19.20
2019-03-28T16:08:56.748Z,19.00
2019-03-28T16:13:02.549Z,18.90
2019-03-28T16:17:09.095Z,18.80
2019-03-28T16:21:14.880Z,18.70
2019-03-28T16:25:20.578Z,18.70
2019-03-28T16:29:26.269Z,18.60
2019-03-28T16:33:32.045Z,18.60
2019-03-28T16:37:39.974Z,18.60
2019-03-28T16:41:49.627Z,18.50
2019-03-28T16:45:55.493Z,18.50
2019-03-28T16:50:03.672Z,18.50
2019-03-28T16:54:09.412Z,18.40
2019-03-28T16:58:15.190Z,18.40
2019-03-28T17:02:21.854Z,18.20
2019-03-28T17:06:27.857Z,18.10
2019-03-28T17:10:45.397Z,18.10
2019-03-28T17:14:51.740Z,18.10
2019-03-28T17:18:57.487Z,18.00
2019-03-28T17:23:03.203Z,17.90
2019-03-28T17:27:08.899Z,17.80
2019-03-28T17:31:14.601Z,17.70
2019-03-28T17:35:20.299Z,17.60
2019-03-28T17:39:26.088Z,17.40
2019-03-28T17:43:32.049Z,17.40
2019-03-28T17:47:37.755Z,17.40
2019-03-28T17:51:43.463Z,17.30
2019-03-28T17:55:49.172Z,17.20
2019-03-28T17:59:54.940Z,17.10
2019-03-28T18:04:00.812Z,17.10
2019-03-28T18:08:07.490Z,17.10
2019-03-28T18:12:13.844Z,17.00
2019-03-28T18:16:19.750Z,16.90
2019-03-28T18:20:25.619Z,16.90
2019-03-28T18:24:33.025Z,16.80
2019-03-28T18:37:10.577Z,16.60
2019-03-28T18:41:16.316Z,16.60
2019-03-28T18:45:22.047Z,16.60
2019-03-28T18:49:27.749Z,16.60
2019-03-28T18:53:33.510Z,16.70
2019-03-28T18:57:39.821Z,16.70
2019-03-28T19:01:45.574Z,16.80
2019-03-28T19:05:51.284Z,16.80
2019-03-28T19:09:56.994Z,16.80
2019-03-28T19:14:02.791Z,16.80
2019-03-28T19:18:08.557Z,16.70
2019-03-28T19:22:14.285Z,16.70
2019-03-28T19:26:19.994Z,16.70
2019-03-28T19:30:32.709Z,16.70
2019-03-28T19:34:38.411Z,16.70
2019-03-28T19:38:44.526Z,16.70
2019-03-28T19:42:50.249Z,16.60
2019-03-28T19:46:55.969Z,16.60
2019-03-28T19:51:02.270Z,16.50
2019-03-28T19:55:08.522Z,16.50
2019-03-28T19:59:14.378Z,16.50
2019-03-28T20:03:23.078Z,16.50
2019-03-28T20:07:27.473Z,16.40
2019-03-28T20:11:33.300Z,16.40
2019-03-28T20:15:39.476Z,16.40
2019-03-28T20:19:45.256Z,16.40
2019-03-28T20:23:50.965Z,16.40
2019-03-28T20:27:56.722Z,16.40
2019-03-28T20:32:02.422Z,16.40
2019-03-28T20:36:35.659Z,16.40
2019-03-28T20:40:16.199Z,16.30
2019-03-28T20:44:22.018Z,16.40
2019-03-28T20:48:27.924Z,16.30
2019-03-28T20:52:33.645Z,16.30
2019-03-28T20:56:39.332Z,16.20
2019-03-28T21:00:47.780Z,16.20
2019-03-28T21:04:53.547Z,16.20
2019-03-28T21:08:59.250Z,16.30
2019-03-28T21:13:06.536Z,16.20
2019-03-28T21:17:12.295Z,16.20
2019-03-28T21:21:18.081Z,16.30
2019-03-28T21:25:23.791Z,16.30
2019-03-28T21:29:29.510Z,16.30
2019-03-28T21:33:35.235Z,16.30
2019-03-28T21:37:40.940Z,16.20
2019-03-28T21:41:46.639Z,16.20
2019-03-28T21:45:52.391Z,16.20
2019-03-28T21:49:58.093Z,16.10
2019-03-28T21:54:05.141Z,16.00
2019-03-28T21:59:17.814Z,16.00
2019-03-28T22:03:23.590Z,15.90
2019-03-28T22:08:17.383Z,15.90
2019-03-28T22:12:23.079Z,15.90
2019-03-28T22:16:28.791Z,15.90
2019-03-28T22:20:34.538Z,15.90
2019-03-28T22:24:40.235Z,15.80
2019-03-28T22:28:46.505Z,15.80
2019-03-28T22:32:52.231Z,15.90
2019-03-28T22:36:59.973Z,15.80
2019-03-28T22:41:20.203Z,15.80
2019-03-28T22:45:25.894Z,15.60
2019-03-28T22:49:31.936Z,15.70
2019-03-28T22:53:37.787Z,15.70
2019-03-28T22:57:43.531Z,15.70
2019-03-28T23:01:49.375Z,15.80
2019-03-28T23:05:55.062Z,15.70
2019-03-28T23:10:00.860Z,15.70
2019-03-28T23:14:07.730Z,15.60
2019-03-28T23:18:13.872Z,15.50
2019-03-28T23:22:19.525Z,15.30
2019-03-28T23:26:25.215Z,15.20
2019-03-28T23:30:31.039Z,15.20
2019-03-28T23:34:36.715Z,15.20
2019-03-28T23:38:42.438Z,15.30
2019-03-28T23:42:49.139Z,15.10
2019-03-28T23:46:54.906Z,15.10
2019-03-28T23:51:00.654Z,15.00
2019-03-28T23:55:08.701Z,15.00
2019-03-28T23:59:14.412Z,14.90
